PWSweather.com
Personal Weather Stations
Station Observations

ChardChardGB

Lat: 50.877408, Lon: -2.94964741

Elevation: 341

Station Type: WS3083

http://www.merriott-astro.co.uk/weather/index.htm

High Low Average
Temperature 51.8°F11.0°C 38.8°F3.8°C 44.7°F7.1°C
Dew Point 49.0°F9.4°C 28.5°F-1.9°C 39.2°F4.0°C
Winds 13.0 mph 20.9 kmh 3.1 mph 5.0 kmh 9.0 mph S14.5 kmh S
Wind Gusts 19.0 mph30.6 kmh 6.0 mph9.7 kmh 12.0 mph19.3 kmh
Humidity 90% 62% 81%
Pressure 29.94 in1013.9 mb 29.35 in993.9 mb -
Precipitation 0.58 in14.7 mm - -
Hour Temp Dew Point Humidity Winds Wind Gusts Pressure Precip Precip Rate Daily Precip Total
12:00 AM 40.8°F4.9°C 29.2°F-1.6°C 63% 5.0 mph SE8.0 kmh SE 11.4 mph18.3 kmh 29.94 in1013.9 mb 0.00 in0.0 mm 0.00 in0.0 mm 0.00 in0.0 mm
12:10 AM 40.8°F4.9°C 29.2°F-1.6°C 63% 5.0 mph SSE8.0 kmh SSE 6.9 mph11.1 kmh 29.94 in1013.9 mb 0.00 in0.0 mm 0.00 in0.0 mm 0.00 in0.0 mm
12:20 AM 40.8°F4.9°C 28.8°F-1.8°C 62% 5.0 mph S8.0 kmh S 9.2 mph14.8 kmh 29.94 in1013.9 mb 0.00 in0.0 mm 0.00 in0.0 mm 0.00 in0.0 mm
12:30 AM 40.8°F4.9°C 28.8°F-1.8°C 62% 6.7 mph ENE10.8 kmh ENE 10.7 mph17.2 kmh 29.93 in1013.5 mb 0.00 in0.0 mm 0.00 in0.0 mm 0.00 in0.0 mm
12:40 AM 40.8°F4.9°C 28.8°F-1.8°C 62% 4.2 mph SE6.8 kmh SE 6.9 mph11.1 kmh 29.93 in1013.5 mb 0.00 in0.0 mm 0.00 in0.0 mm 0.00 in0.0 mm
12:50 AM 40.6°F4.8°C 28.7°F-1.8°C 62% 4.4 mph SE7.1 kmh SE 6.9 mph11.1 kmh 29.93 in1013.5 mb 0.00 in0.0 mm 0.00 in0.0 mm 0.00 in0.0 mm
01:00 AM 40.5°F4.7°C 28.5°F-1.9°C 62% 4.0 mph E6.4 kmh E 9.8 mph15.8 kmh 29.92 in1013.2 mb 0.00 in0.0 mm 0.00 in0.0 mm 0.00 in0.0 mm
01:10 AM 40.5°F4.7°C 28.9°F-1.7°C 63% 4.4 mph S7.1 kmh S 7.6 mph12.2 kmh 29.92 in1013.2 mb 0.00 in0.0 mm 0.00 in0.0 mm 0.00 in0.0 mm
01:20 AM 40.5°F4.7°C 28.9°F-1.7°C 63% 4.8 mph SSE7.7 kmh SSE 9.8 mph15.8 kmh 29.92 in1013.2 mb 0.00 in0.0 mm 0.00 in0.0 mm 0.00 in0.0 mm
01:30 AM 40.5°F4.7°C 28.9°F-1.7°C 63% 4.3 mph SSE6.9 kmh SSE 11.4 mph18.3 kmh 29.91 in1012.9 mb 0.00 in0.0 mm 0.00 in0.0 mm 0.00 in0.0 mm
01:40 AM 40.3°F4.6°C 29.1°F-1.6°C 64% 3.1 mph S5.0 kmh S 9.8 mph15.8 kmh 29.90 in1012.5 mb 0.00 in0.0 mm 0.00 in0.0 mm 0.00 in0.0 mm
01:50 AM 40.5°F4.7°C 29.3°F-1.5°C 64% 4.6 mph E7.4 kmh E 9.8 mph15.8 kmh 29.90 in1012.5 mb 0.00 in0.0 mm 0.00 in0.0 mm 0.00 in0.0 mm
02:00 AM 40.5°F4.7°C 29.3°F-1.5°C 64% 4.4 mph SE7.1 kmh SE 10.7 mph17.2 kmh 29.91 in1012.9 mb 0.00 in0.0 mm 0.00 in0.0 mm 0.00 in0.0 mm
02:10 AM 40.5°F4.7°C 29.3°F-1.5°C 64% 6.0 mph WNW9.7 kmh WNW 9.8 mph15.8 kmh 29.90 in1012.5 mb 0.00 in0.0 mm 0.00 in0.0 mm 0.00 in0.0 mm
02:20 AM 40.5°F4.7°C 29.3°F-1.5°C 64% 4.8 mph S7.7 kmh S 10.7 mph17.2 kmh 29.90 in1012.5 mb 0.00 in0.0 mm 0.00 in0.0 mm 0.00 in0.0 mm
02:30 AM 40.5°F4.7°C 29.3°F-1.5°C 64% 3.8 mph E6.1 kmh E 6.0 mph9.7 kmh 29.89 in1012.2 mb 0.00 in0.0 mm 0.00 in0.0 mm 0.00 in0.0 mm
02:40 AM 40.5°F4.7°C 29.3°F-1.5°C 64% 6.1 mph S9.8 kmh S 13.6 mph21.9 kmh 29.89 in1012.2 mb 0.00 in0.0 mm 0.00 in0.0 mm 0.00 in0.0 mm
02:50 AM 40.5°F4.7°C 29.3°F-1.5°C 64% 6.5 mph SE10.5 kmh SE 9.8 mph15.8 kmh 29.88 in1011.9 mb 0.00 in0.0 mm 0.00 in0.0 mm 0.00 in0.0 mm
03:00 AM 39.9°F4.4°C 29.5°F-1.4°C 66% 6.8 mph ESE10.9 kmh ESE 11.4 mph18.3 kmh 29.88 in1011.9 mb 0.00 in0.0 mm 0.00 in0.0 mm 0.00 in0.0 mm
03:10 AM 39.6°F4.2°C 29.9°F-1.2°C 68% 8.3 mph ESE13.4 kmh ESE 13.0 mph20.9 kmh 29.87 in1011.5 mb 0.00 in0.0 mm 0.00 in0.0 mm 0.00 in0.0 mm
03:20 AM 39.4°F4.1°C 30.4°F-0.9°C 70% 7.8 mph S12.6 kmh S 9.8 mph15.8 kmh 29.87 in1011.5 mb 0.01 in0.3 mm 0.06 in1.5 mm 0.01 in0.3 mm
03:30 AM 39.4°F4.1°C 30.4°F-0.9°C 70% 8.9 mph SE14.3 kmh SE 14.5 mph23.3 kmh 29.86 in1011.2 mb 0.01 in0.3 mm 0.00 in0.0 mm 0.01 in0.3 mm
03:40 AM 39.2°F4.0°C 30.6°F-0.8°C 71% 8.4 mph SE13.5 kmh SE 16.8 mph27.0 kmh 29.84 in1010.5 mb 0.01 in0.3 mm 0.00 in0.0 mm 0.01 in0.3 mm
03:50 AM 39.2°F4.0°C 30.9°F-0.6°C 72% 9.3 mph S15.0 kmh S 12.1 mph19.5 kmh 29.84 in1010.5 mb 0.01 in0.3 mm 0.00 in0.0 mm 0.01 in0.3 mm
04:00 AM 39.2°F4.0°C 31.3°F-0.4°C 73% 8.1 mph SSE13.0 kmh SSE 9.8 mph15.8 kmh 29.84 in1010.5 mb 0.01 in0.3 mm 0.00 in0.0 mm 0.01 in0.3 mm
04:10 AM 39.2°F4.0°C 31.6°F-0.2°C 74% 7.9 mph ESE12.7 kmh ESE 11.4 mph18.3 kmh 29.84 in1010.5 mb 0.01 in0.3 mm 0.00 in0.0 mm 0.01 in0.3 mm
04:20 AM 39.2°F4.0°C 32.0°F0.0°C 75% 8.0 mph SSE12.9 kmh SSE 13.0 mph20.9 kmh 29.83 in1010.2 mb 0.01 in0.3 mm 0.00 in0.0 mm 0.02 in0.5 mm
04:30 AM 39.0°F3.9°C 32.1°F0.1°C 76% 8.6 mph ESE13.8 kmh ESE 13.0 mph20.9 kmh 29.82 in1009.8 mb 0.01 in0.3 mm 0.00 in0.0 mm 0.02 in0.5 mm
04:40 AM 39.0°F3.9°C 33.1°F0.6°C 79% 8.3 mph SW13.4 kmh SW 11.4 mph18.3 kmh 29.81 in1009.5 mb 0.02 in0.5 mm 0.06 in1.5 mm 0.04 in1.0 mm
04:50 AM 39.0°F3.9°C 33.4°F0.8°C 80% 7.3 mph S11.7 kmh S 11.4 mph18.3 kmh 29.81 in1009.5 mb 0.04 in1.0 mm 0.12 in3.0 mm 0.05 in1.3 mm
05:00 AM 39.0°F3.9°C 33.7°F0.9°C 81% 6.8 mph ENE10.9 kmh ENE 11.4 mph18.3 kmh 29.80 in1009.1 mb 0.06 in1.5 mm 0.02 in0.5 mm 0.07 in1.8 mm
05:10 AM 39.0°F3.9°C 33.7°F0.9°C 81% 8.9 mph SSE14.3 kmh SSE 14.5 mph23.3 kmh 29.80 in1009.1 mb 0.07 in1.8 mm 0.06 in1.5 mm 0.08 in2.0 mm
05:20 AM 38.8°F3.8°C 33.8°F1.0°C 82% 9.3 mph SSW15.0 kmh SSW 15.2 mph24.5 kmh 29.79 in1008.8 mb 0.07 in1.8 mm 0.00 in0.0 mm 0.09 in2.3 mm
05:30 AM 39.0°F3.9°C 34.0°F1.1°C 82% 6.8 mph SE10.9 kmh SE 11.4 mph18.3 kmh 29.79 in1008.8 mb 0.08 in2.0 mm 0.06 in1.5 mm 0.11 in2.8 mm
05:40 AM 39.0°F3.9°C 34.3°F1.3°C 83% 6.0 mph S9.7 kmh S 10.7 mph17.2 kmh 29.80 in1009.1 mb 0.07 in1.8 mm 0.00 in0.0 mm 0.11 in2.8 mm
05:50 AM 39.2°F4.0°C 34.5°F1.4°C 83% 5.1 mph SSE8.2 kmh SSE 9.2 mph14.8 kmh 29.78 in1008.5 mb 0.07 in1.8 mm 0.00 in0.0 mm 0.12 in3.0 mm
06:00 AM 39.4°F4.1°C 35.0°F1.7°C 84% 5.5 mph SSE8.9 kmh SSE 9.2 mph14.8 kmh 29.78 in1008.5 mb 0.06 in1.5 mm 0.00 in0.0 mm 0.13 in3.3 mm
06:10 AM 39.6°F4.2°C 35.1°F1.7°C 84% 4.9 mph S7.9 kmh S 8.3 mph13.4 kmh 29.77 in1008.1 mb 0.05 in1.3 mm 0.00 in0.0 mm 0.13 in3.3 mm
06:20 AM 39.7°F4.3°C 35.3°F1.8°C 84% 5.6 mph S9.0 kmh S 9.2 mph14.8 kmh 29.76 in1007.8 mb 0.04 in1.0 mm 0.00 in0.0 mm 0.13 in3.3 mm
06:30 AM 40.1°F4.5°C 36.0°F2.2°C 85% 5.4 mph SE8.7 kmh SE 7.6 mph12.2 kmh 29.76 in1007.8 mb 0.02 in0.5 mm 0.00 in0.0 mm 0.13 in3.3 mm
06:40 AM 40.1°F4.5°C 36.0°F2.2°C 85% 6.2 mph SSE10.0 kmh SSE 7.6 mph12.2 kmh 29.75 in1007.5 mb 0.04 in1.0 mm 0.12 in3.0 mm 0.14 in3.6 mm
06:50 AM 40.5°F4.7°C 36.3°F2.4°C 85% 7.6 mph S12.2 kmh S 10.7 mph17.2 kmh 29.74 in1007.1 mb 0.02 in0.5 mm 0.00 in0.0 mm 0.14 in3.6 mm
07:00 AM 40.6°F4.8°C 36.8°F2.7°C 86% 7.0 mph SSE11.3 kmh SSE 15.9 mph25.6 kmh 29.75 in1007.5 mb 0.02 in0.5 mm 0.00 in0.0 mm 0.15 in3.8 mm
07:10 AM 40.8°F4.9°C 37.0°F2.8°C 86% 6.9 mph S11.1 kmh S 10.7 mph17.2 kmh 29.74 in1007.1 mb 0.02 in0.5 mm 0.00 in0.0 mm 0.15 in3.8 mm
07:20 AM 41.0°F5.0°C 37.1°F2.8°C 86% 5.6 mph SSE9.0 kmh SSE 10.7 mph17.2 kmh 29.74 in1007.1 mb 0.02 in0.5 mm 0.00 in0.0 mm 0.15 in3.8 mm
07:30 AM 41.2°F5.1°C 37.3°F2.9°C 86% 6.5 mph SE10.5 kmh SE 11.4 mph18.3 kmh 29.73 in1006.8 mb 0.02 in0.5 mm 0.00 in0.0 mm 0.15 in3.8 mm
07:40 AM 41.2°F5.1°C 37.6°F3.1°C 87% 7.2 mph SSW11.6 kmh SSW 9.2 mph14.8 kmh 29.73 in1006.8 mb 0.01 in0.3 mm 0.00 in0.0 mm 0.15 in3.8 mm
07:50 AM 41.4°F5.2°C 37.8°F3.2°C 87% 8.2 mph SSW13.2 kmh SSW 16.8 mph27.0 kmh 29.73 in1006.8 mb 0.02 in0.5 mm 0.06 in1.5 mm 0.17 in4.3 mm
08:00 AM 41.7°F5.4°C 38.1°F3.4°C 87% 6.1 mph SSE9.8 kmh SSE 9.8 mph15.8 kmh 29.72 in1006.4 mb 0.01 in0.3 mm 0.00 in0.0 mm 0.17 in4.3 mm
08:10 AM 41.9°F5.5°C 38.3°F3.5°C 87% 7.3 mph SSE11.7 kmh SSE 13.6 mph21.9 kmh 29.72 in1006.4 mb 0.02 in0.5 mm 0.06 in1.5 mm 0.18 in4.6 mm
08:20 AM 42.1°F5.6°C 38.8°F3.8°C 88% 7.6 mph SE12.2 kmh SE 13.6 mph21.9 kmh 29.71 in1006.1 mb 0.02 in0.5 mm 0.00 in0.0 mm 0.18 in4.6 mm
08:30 AM 42.4°F5.8°C 39.1°F3.9°C 88% 10.1 mph S16.3 kmh S 17.4 mph28.0 kmh 29.70 in1005.8 mb 0.02 in0.5 mm 0.00 in0.0 mm 0.18 in4.6 mm
08:40 AM 42.6°F5.9°C 39.3°F4.1°C 88% 8.3 mph SE13.4 kmh SE 13.0 mph20.9 kmh 29.70 in1005.8 mb 0.02 in0.5 mm 0.00 in0.0 mm 0.18 in4.6 mm
08:50 AM 43.0°F6.1°C 40.0°F4.4°C 89% 11.8 mph S19.0 kmh S 17.4 mph28.0 kmh 29.70 in1005.8 mb 0.01 in0.3 mm 0.00 in0.0 mm 0.18 in4.6 mm
09:00 AM 43.3°F6.3°C 40.3°F4.6°C 89% 10.0 mph S16.1 kmh S 13.6 mph21.9 kmh 29.70 in1005.8 mb 0.01 in0.3 mm 0.00 in0.0 mm 0.18 in4.6 mm
09:10 AM 43.5°F6.4°C 40.5°F4.7°C 89% 8.8 mph NW14.2 kmh NW 13.6 mph21.9 kmh 29.69 in1005.4 mb 0.00 in0.0 mm 0.00 in0.0 mm 0.18 in4.6 mm
09:20 AM 43.9°F6.6°C 41.1°F5.1°C 90% 8.6 mph SSE13.8 kmh SSE 12.1 mph19.5 kmh 29.68 in1005.1 mb 0.00 in0.0 mm 0.00 in0.0 mm 0.18 in4.6 mm
09:30 AM 44.2°F6.8°C 41.5°F5.3°C 90% 7.9 mph S12.7 kmh S 12.1 mph19.5 kmh 29.68 in1005.1 mb 0.00 in0.0 mm 0.00 in0.0 mm 0.18 in4.6 mm
09:40 AM 44.4°F6.9°C 41.7°F5.4°C 90% 9.7 mph SE15.6 kmh SE 17.4 mph28.0 kmh 29.68 in1005.1 mb 0.01 in0.3 mm 0.06 in1.5 mm 0.19 in4.8 mm
09:50 AM 44.6°F7.0°C 41.9°F5.5°C 90% 7.9 mph S12.7 kmh S 12.1 mph19.5 kmh 29.68 in1005.1 mb 0.01 in0.3 mm 0.00 in0.0 mm 0.19 in4.8 mm
10:00 AM 44.6°F7.0°C 41.9°F5.5°C 90% 10.7 mph S17.2 kmh S 16.8 mph27.0 kmh 29.67 in1004.7 mb 0.02 in0.5 mm 0.01 in0.3 mm 0.20 in5.1 mm
10:10 AM 44.4°F6.9°C 41.7°F5.4°C 90% 10.0 mph S16.1 kmh S 13.0 mph20.9 kmh 29.66 in1004.4 mb 0.02 in0.5 mm 0.00 in0.0 mm 0.20 in5.1 mm
10:20 AM 44.2°F6.8°C 41.5°F5.3°C 90% 11.0 mph S17.7 kmh S 16.8 mph27.0 kmh 29.66 in1004.4 mb 0.02 in0.5 mm 0.00 in0.0 mm 0.20 in5.1 mm
10:30 AM 44.1°F6.7°C 41.3°F5.2°C 90% 12.2 mph SW19.6 kmh SW 17.4 mph28.0 kmh 29.65 in1004.1 mb 0.02 in0.5 mm 0.00 in0.0 mm 0.20 in5.1 mm
10:40 AM 43.9°F6.6°C 41.1°F5.1°C 90% 13.0 mph SE20.9 kmh SE 19.0 mph30.6 kmh 29.64 in1003.7 mb 0.02 in0.5 mm 0.00 in0.0 mm 0.21 in5.3 mm
10:50 AM 43.7°F6.5°C 40.7°F4.8°C 89% 11.3 mph S18.2 kmh S 16.8 mph27.0 kmh 29.63 in1003.4 mb 0.02 in0.5 mm 0.00 in0.0 mm 0.21 in5.3 mm
11:00 AM 43.5°F6.4°C 40.5°F4.7°C 89% 12.2 mph S19.6 kmh S 15.9 mph25.6 kmh 29.62 in1003.0 mb 0.02 in0.5 mm 0.00 in0.0 mm 0.22 in5.6 mm
11:10 AM 43.3°F6.3°C 40.3°F4.6°C 89% 10.4 mph SSW16.7 kmh SSW 15.2 mph24.5 kmh 29.61 in1002.7 mb 0.02 in0.5 mm 0.00 in0.0 mm 0.22 in5.6 mm
11:20 AM 43.3°F6.3°C 40.3°F4.6°C 89% 10.3 mph S16.6 kmh S 15.2 mph24.5 kmh 29.61 in1002.7 mb 0.02 in0.5 mm 0.00 in0.0 mm 0.22 in5.6 mm
11:30 AM 43.3°F6.3°C 40.3°F4.6°C 89% 7.9 mph SSE12.7 kmh SSE 13.6 mph21.9 kmh 29.59 in1002.0 mb 0.02 in0.5 mm 0.00 in0.0 mm 0.22 in5.6 mm
11:40 AM 43.3°F6.3°C 40.3°F4.6°C 89% 7.6 mph WNW12.2 kmh WNW 16.8 mph27.0 kmh 29.58 in1001.7 mb 0.02 in0.5 mm 0.00 in0.0 mm 0.24 in6.1 mm
11:50 AM 43.2°F6.2°C 39.9°F4.4°C 88% 10.9 mph SE17.5 kmh SE 16.8 mph27.0 kmh 29.57 in1001.4 mb 0.04 in1.0 mm 0.12 in3.0 mm 0.25 in6.4 mm
12:00 PM 43.0°F6.1°C 39.7°F4.3°C 88% 8.9 mph E14.3 kmh E 12.1 mph19.5 kmh 29.57 in1001.4 mb 0.04 in1.0 mm 0.00 in0.0 mm 0.26 in6.6 mm
12:10 PM 43.0°F6.1°C 39.7°F4.3°C 88% 6.3 mph S10.1 kmh S 10.7 mph17.2 kmh 29.57 in1001.4 mb 0.05 in1.3 mm 0.06 in1.5 mm 0.27 in6.9 mm
12:20 PM 42.8°F6.0°C 39.5°F4.2°C 88% 7.5 mph E12.1 kmh E 9.8 mph15.8 kmh 29.56 in1001.0 mb 0.06 in1.5 mm 0.06 in1.5 mm 0.28 in7.1 mm
12:30 PM 42.8°F6.0°C 39.5°F4.2°C 88% 9.9 mph SSE15.9 kmh SSE 12.1 mph19.5 kmh 29.55 in1000.7 mb 0.07 in1.8 mm 0.06 in1.5 mm 0.30 in7.6 mm
12:40 PM 43.0°F6.1°C 40.0°F4.4°C 89% 12.2 mph ESE19.6 kmh ESE 17.4 mph28.0 kmh 29.54 in1000.3 mb 0.06 in1.5 mm 0.00 in0.0 mm 0.30 in7.6 mm
12:50 PM 43.0°F6.1°C 40.0°F4.4°C 89% 8.5 mph SSE13.7 kmh SSE 10.7 mph17.2 kmh 29.53 in1000.0 mb 0.05 in1.3 mm 0.00 in0.0 mm 0.30 in7.6 mm
01:00 PM 43.2°F6.2°C 40.1°F4.5°C 89% 9.6 mph N15.4 kmh N 13.6 mph21.9 kmh 29.52 in999.7 mb 0.04 in1.0 mm 0.00 in0.0 mm 0.30 in7.6 mm
01:10 PM 43.3°F6.3°C 40.3°F4.6°C 89% 9.2 mph E14.8 kmh E 13.6 mph21.9 kmh 29.51 in999.3 mb 0.04 in1.0 mm 0.00 in0.0 mm 0.31 in7.9 mm
01:20 PM 43.5°F6.4°C 40.5°F4.7°C 89% 8.5 mph S13.7 kmh S 17.4 mph28.0 kmh 29.50 in999.0 mb 0.02 in0.5 mm 0.00 in0.0 mm 0.31 in7.9 mm
01:30 PM 43.7°F6.5°C 40.7°F4.8°C 89% 7.6 mph S12.2 kmh S 10.7 mph17.2 kmh 29.48 in998.3 mb 0.01 in0.3 mm 0.00 in0.0 mm 0.31 in7.9 mm
01:40 PM 44.1°F6.7°C 41.0°F5.0°C 89% 7.7 mph SSE12.4 kmh SSE 13.6 mph21.9 kmh 29.47 in998.0 mb 0.01 in0.3 mm 0.00 in0.0 mm 0.31 in7.9 mm
01:50 PM 44.4°F6.9°C 41.7°F5.4°C 90% 7.5 mph SE12.1 kmh SE 13.0 mph20.9 kmh 29.46 in997.6 mb 0.02 in0.5 mm 0.06 in1.5 mm 0.32 in8.1 mm
02:00 PM 44.8°F7.1°C 42.0°F5.6°C 90% 7.9 mph SE12.7 kmh SE 13.0 mph20.9 kmh 29.46 in997.6 mb 0.02 in0.5 mm 0.00 in0.0 mm 0.32 in8.1 mm
02:10 PM 45.3°F7.4°C 42.6°F5.9°C 90% 7.4 mph SE11.9 kmh SE 10.7 mph17.2 kmh 29.45 in997.3 mb 0.04 in1.0 mm 0.12 in3.0 mm 0.34 in8.6 mm
02:20 PM 46.0°F7.8°C 41.8°F5.4°C 85% 7.7 mph SE12.4 kmh SE 9.8 mph15.8 kmh 29.44 in997.0 mb 0.06 in1.5 mm 0.12 in3.0 mm 0.37 in9.4 mm
02:30 PM 46.6°F8.1°C 42.3°F5.7°C 85% 5.6 mph S9.0 kmh S 8.3 mph13.4 kmh 29.41 in995.9 mb 0.09 in2.3 mm 0.18 in4.6 mm 0.40 in10.2 mm
02:40 PM 47.5°F8.6°C 43.5°F6.4°C 86% 5.1 mph S8.2 kmh S 9.2 mph14.8 kmh 29.41 in995.9 mb 0.12 in3.0 mm 0.18 in4.6 mm 0.43 in10.9 mm
02:50 PM 48.4°F9.1°C 44.7°F7.1°C 87% 5.0 mph ENE8.0 kmh ENE 7.6 mph12.2 kmh 29.40 in995.6 mb 0.14 in3.6 mm 0.12 in3.0 mm 0.46 in11.7 mm
03:00 PM 49.3°F9.6°C 45.6°F7.6°C 87% 6.2 mph S10.0 kmh S 11.4 mph18.3 kmh 29.39 in995.3 mb 0.15 in3.8 mm 0.01 in0.3 mm 0.47 in11.9 mm
03:10 PM 50.4°F10.2°C 46.9°F8.3°C 88% 8.7 mph SW14.0 kmh SW 13.0 mph20.9 kmh 29.37 in994.6 mb 0.14 in3.6 mm 0.00 in0.0 mm 0.48 in12.2 mm
03:20 PM 50.9°F10.5°C 47.8°F8.8°C 89% 7.7 mph SW12.4 kmh SW 11.4 mph18.3 kmh 29.36 in994.2 mb 0.14 in3.6 mm 0.00 in0.0 mm 0.51 in13.0 mm
03:30 PM 51.6°F10.9°C 48.8°F9.3°C 90% 9.8 mph SW15.8 kmh SW 14.5 mph23.3 kmh 29.37 in994.6 mb 0.15 in3.8 mm 0.06 in1.5 mm 0.56 in14.2 mm
03:40 PM 51.8°F11.0°C 49.0°F9.4°C 90% 12.5 mph S20.1 kmh S 14.5 mph23.3 kmh 29.38 in994.9 mb 0.15 in3.8 mm 0.00 in0.0 mm 0.58 in14.7 mm
03:50 PM 51.8°F11.0°C 49.0°F9.4°C 90% 13.0 mph SE20.9 kmh SE 13.0 mph20.9 kmh 29.36 in994.2 mb 0.12 in3.0 mm 0.00 in0.0 mm 0.58 in14.7 mm
04:00 PM 51.8°F11.0°C 49.0°F9.4°C 90% 13.0 mph SE20.9 kmh SE 13.0 mph20.9 kmh 29.36 in994.2 mb 0.11 in2.8 mm 0.00 in0.0 mm 0.58 in14.7 mm
04:10 PM 51.8°F11.0°C 49.0°F9.4°C 90% 13.0 mph SE20.9 kmh SE 13.0 mph20.9 kmh 29.35 in993.9 mb 0.09 in2.3 mm 0.00 in0.0 mm 0.58 in14.7 mm
04:20 PM 51.8°F11.0°C 49.0°F9.4°C 90% 13.0 mph SE20.9 kmh SE 13.0 mph20.9 kmh 29.35 in993.9 mb 0.07 in1.8 mm 0.00 in0.0 mm 0.58 in14.7 mm
04:30 PM 51.8°F11.0°C 49.0°F9.4°C 90% 13.0 mph SE20.9 kmh SE 13.0 mph20.9 kmh 29.35 in993.9 mb 0.02 in0.5 mm 0.00 in0.0 mm 0.58 in14.7 mm
04:40 PM 51.8°F11.0°C 49.0°F9.4°C 90% 13.0 mph SE20.9 kmh SE 13.0 mph20.9 kmh 29.35 in993.9 mb 0.00 in0.0 mm 0.00 in0.0 mm 0.58 in14.7 mm
04:50 PM 51.8°F11.0°C 49.0°F9.4°C 90% 13.0 mph SE20.9 kmh SE 13.0 mph20.9 kmh 29.36 in994.2 mb 0.00 in0.0 mm 0.00 in0.0 mm 0.58 in14.7 mm
05:00 PM 51.8°F11.0°C 49.0°F9.4°C 90% 13.0 mph SE20.9 kmh SE 13.0 mph20.9 kmh 29.38 in994.9 mb 0.00 in0.0 mm 0.00 in0.0 mm 0.58 in14.7 mm
05:10 PM 51.8°F11.0°C 49.0°F9.4°C 90% 13.0 mph SE20.9 kmh SE 13.0 mph20.9 kmh 29.40 in995.6 mb 0.00 in0.0 mm 0.00 in0.0 mm 0.58 in14.7 mm
05:20 PM 51.8°F11.0°C 49.0°F9.4°C 90% 13.0 mph SE20.9 kmh SE 13.0 mph20.9 kmh 29.41 in995.9 mb 0.00 in0.0 mm 0.00 in0.0 mm 0.58 in14.7 mm
05:30 PM 51.8°F11.0°C 49.0°F9.4°C 90% 13.0 mph SE20.9 kmh SE 13.0 mph20.9 kmh 29.41 in995.9 mb 0.00 in0.0 mm 0.00 in0.0 mm 0.58 in14.7 mm
05:40 PM 51.8°F11.0°C 49.0°F9.4°C 90% 13.0 mph SE20.9 kmh SE 13.0 mph20.9 kmh 29.42 in996.3 mb 0.00 in0.0 mm 0.00 in0.0 mm 0.58 in14.7 mm
05:50 PM 51.8°F11.0°C 49.0°F9.4°C 90% 13.0 mph SE20.9 kmh SE 13.0 mph20.9 kmh 29.42 in996.3 mb 0.00 in0.0 mm 0.00 in0.0 mm 0.58 in14.7 mm
06:00 PM 51.8°F11.0°C 49.0°F9.4°C 90% 13.0 mph SE20.9 kmh SE 13.0 mph20.9 kmh 29.43 in996.6 mb 0.00 in0.0 mm 0.00 in0.0 mm 0.58 in14.7 mm
06:10 PM 51.8°F11.0°C 49.0°F9.4°C 90% 13.0 mph SE20.9 kmh SE 13.0 mph20.9 kmh 29.43 in996.6 mb 0.00 in0.0 mm 0.00 in0.0 mm 0.58 in14.7 mm
06:20 PM 51.8°F11.0°C 49.0°F9.4°C 90% 13.0 mph SE20.9 kmh SE 13.0 mph20.9 kmh 29.43 in996.6 mb 0.00 in0.0 mm 0.00 in0.0 mm 0.58 in14.7 mm
06:30 PM 51.8°F11.0°C 49.0°F9.4°C 90% 13.0 mph SE20.9 kmh SE 13.0 mph20.9 kmh 29.43 in996.6 mb 0.00 in0.0 mm 0.00 in0.0 mm 0.58 in14.7 mm
06:40 PM 51.8°F11.0°C 49.0°F9.4°C 90% 13.0 mph SE20.9 kmh SE 13.0 mph20.9 kmh 29.44 in997.0 mb 0.00 in0.0 mm 0.00 in0.0 mm 0.58 in14.7 mm
06:50 PM 51.8°F11.0°C 49.0°F9.4°C 90% 13.0 mph SE20.9 kmh SE 13.0 mph20.9 kmh 29.45 in997.3 mb 0.00 in0.0 mm 0.00 in0.0 mm 0.58 in14.7 mm
07:00 PM 51.8°F11.0°C 49.0°F9.4°C 90% 13.0 mph SE20.9 kmh SE 13.0 mph20.9 kmh 29.45 in997.3 mb 0.00 in0.0 mm 0.00 in0.0 mm 0.58 in14.7 mm
07:10 PM 51.8°F11.0°C 49.0°F9.4°C 90% 13.0 mph SE20.9 kmh SE 13.0 mph20.9 kmh 29.45 in997.3 mb 0.00 in0.0 mm 0.00 in0.0 mm 0.58 in14.7 mm
07:20 PM 51.8°F11.0°C 49.0°F9.4°C 90% 13.0 mph SE20.9 kmh SE 13.0 mph20.9 kmh 29.45 in997.3 mb 0.00 in0.0 mm 0.00 in0.0 mm 0.58 in14.7 mm
07:30 PM 51.8°F11.0°C 49.0°F9.4°C 90% 13.0 mph SE20.9 kmh SE 13.0 mph20.9 kmh 29.45 in997.3 mb 0.00 in0.0 mm 0.00 in0.0 mm 0.58 in14.7 mm
07:40 PM 51.8°F11.0°C 49.0°F9.4°C 90% 13.0 mph SE20.9 kmh SE 13.0 mph20.9 kmh 29.46 in997.6 mb 0.00 in0.0 mm 0.00 in0.0 mm 0.58 in14.7 mm
07:50 PM 51.8°F11.0°C 49.0°F9.4°C 90% 13.0 mph SE20.9 kmh SE 13.0 mph20.9 kmh 29.46 in997.6 mb 0.00 in0.0 mm 0.00 in0.0 mm 0.58 in14.7 mm
08:00 PM 51.8°F11.0°C 49.0°F9.4°C 90% 13.0 mph SE20.9 kmh SE 13.0 mph20.9 kmh 29.46 in997.6 mb 0.00 in0.0 mm 0.00 in0.0 mm 0.58 in14.7 mm
08:10 PM 48.6°F9.2°C 39.2°F4.0°C 70% 8.7 mph SW14.0 kmh SW 13.0 mph20.9 kmh 29.46 in997.6 mb 0.00 in0.0 mm 0.00 in0.0 mm 0.58 in14.7 mm
08:20 PM 48.2°F9.0°C 38.9°F3.8°C 70% 9.6 mph SW15.4 kmh SW 13.0 mph20.9 kmh 29.47 in998.0 mb 0.00 in0.0 mm 0.00 in0.0 mm 0.58 in14.7 mm
08:30 PM 48.4°F9.1°C 38.7°F3.7°C 69% 11.3 mph SSW18.2 kmh SSW 15.2 mph24.5 kmh 29.47 in998.0 mb 0.00 in0.0 mm 0.00 in0.0 mm 0.58 in14.7 mm
08:40 PM 48.2°F9.0°C 38.5°F3.6°C 69% 10.0 mph WSW16.1 kmh WSW 13.6 mph21.9 kmh 29.47 in998.0 mb 0.00 in0.0 mm 0.00 in0.0 mm 0.58 in14.7 mm
08:50 PM 48.2°F9.0°C 38.5°F3.6°C 69% 10.5 mph SW16.9 kmh SW 14.5 mph23.3 kmh 29.48 in998.3 mb 0.00 in0.0 mm 0.00 in0.0 mm 0.58 in14.7 mm
09:00 PM 48.0°F8.9°C 38.0°F3.3°C 68% 9.3 mph SW15.0 kmh SW 15.9 mph25.6 kmh 29.48 in998.3 mb 0.00 in0.0 mm 0.00 in0.0 mm 0.58 in14.7 mm
09:10 PM 47.8°F8.8°C 38.2°F3.4°C 69% 7.5 mph WSW12.1 kmh WSW 13.0 mph20.9 kmh 29.50 in999.0 mb 0.00 in0.0 mm 0.00 in0.0 mm 0.58 in14.7 mm
09:20 PM 47.8°F8.8°C 38.9°F3.8°C 71% 9.4 mph SW15.1 kmh SW 14.5 mph23.3 kmh 29.50 in999.0 mb 0.00 in0.0 mm 0.00 in0.0 mm 0.58 in14.7 mm
09:30 PM 47.1°F8.4°C 38.9°F3.8°C 73% 9.5 mph WSW15.3 kmh WSW 12.1 mph19.5 kmh 29.51 in999.3 mb 0.00 in0.0 mm 0.00 in0.0 mm 0.58 in14.7 mm
09:40 PM 46.8°F8.2°C 39.3°F4.1°C 75% 8.2 mph SW13.2 kmh SW 11.4 mph18.3 kmh 29.51 in999.3 mb 0.00 in0.0 mm 0.00 in0.0 mm 0.58 in14.7 mm
09:50 PM 46.6°F8.1°C 39.1°F3.9°C 75% 5.9 mph SW9.5 kmh SW 11.4 mph18.3 kmh 29.51 in999.3 mb 0.00 in0.0 mm 0.00 in0.0 mm 0.58 in14.7 mm
10:00 PM 46.6°F8.1°C 38.7°F3.7°C 74% 5.7 mph SW9.2 kmh SW 8.3 mph13.4 kmh 29.52 in999.7 mb 0.00 in0.0 mm 0.00 in0.0 mm 0.58 in14.7 mm
10:10 PM 46.4°F8.0°C 38.6°F3.7°C 74% 6.0 mph S9.7 kmh S 9.8 mph15.8 kmh 29.51 in999.3 mb 0.00 in0.0 mm 0.00 in0.0 mm 0.58 in14.7 mm
10:20 PM 46.6°F8.1°C 38.4°F3.6°C 73% 5.6 mph SSW9.0 kmh SSW 8.3 mph13.4 kmh 29.52 in999.7 mb 0.00 in0.0 mm 0.00 in0.0 mm 0.58 in14.7 mm
10:30 PM 46.6°F8.1°C 38.4°F3.6°C 73% 6.8 mph SSW10.9 kmh SSW 12.1 mph19.5 kmh 29.52 in999.7 mb 0.00 in0.0 mm 0.00 in0.0 mm 0.58 in14.7 mm
10:40 PM 46.4°F8.0°C 37.9°F3.3°C 72% 5.1 mph S8.2 kmh S 9.8 mph15.8 kmh 29.52 in999.7 mb 0.00 in0.0 mm 0.00 in0.0 mm 0.58 in14.7 mm
10:50 PM 46.2°F7.9°C 38.1°F3.4°C 73% 4.7 mph WSW7.6 kmh WSW 6.9 mph11.1 kmh 29.52 in999.7 mb 0.00 in0.0 mm 0.00 in0.0 mm 0.58 in14.7 mm
11:00 PM 46.2°F7.9°C 38.1°F3.4°C 73% 5.3 mph S8.5 kmh S 8.3 mph13.4 kmh 29.53 in1000.0 mb 0.00 in0.0 mm 0.00 in0.0 mm 0.58 in14.7 mm
11:10 PM 46.2°F7.9°C 37.7°F3.2°C 72% 6.6 mph SW10.6 kmh SW 9.2 mph14.8 kmh 29.54 in1000.3 mb 0.00 in0.0 mm 0.00 in0.0 mm 0.58 in14.7 mm
11:20 PM 46.0°F7.8°C 37.5°F3.1°C 72% 5.7 mph SW9.2 kmh SW 9.8 mph15.8 kmh 29.54 in1000.3 mb 0.00 in0.0 mm 0.00 in0.0 mm 0.58 in14.7 mm
11:30 PM 46.0°F7.8°C 37.9°F3.3°C 73% 4.6 mph SW7.4 kmh SW 7.6 mph12.2 kmh 29.54 in1000.3 mb 0.00 in0.0 mm 0.00 in0.0 mm 0.58 in14.7 mm
11:40 PM 45.7°F7.6°C 37.5°F3.1°C 73% 3.9 mph W6.3 kmh W 6.0 mph9.7 kmh 29.54 in1000.3 mb 0.00 in0.0 mm 0.00 in0.0 mm 0.58 in14.7 mm
11:50 PM 45.3°F7.4°C 39.5°F4.2°C 80% 3.9 mph S6.3 kmh S 6.0 mph9.7 kmh 29.54 in1000.3 mb 0.00 in0.0 mm 0.00 in0.0 mm 0.58 in14.7 mm